sensor_id;sensor_type;location;lat;lon;timestamp;P1;durP1;ratioP1;P2;durP2;ratioP2
5730;SDS011;2890;51.950;7.668;2022-12-07T00:02:03;13.03;;;9.87;;
5730;SDS011;2890;51.950;7.668;2022-12-07T00:04:30;16.47;;;9.83;;
5730;SDS011;2890;51.950;7.668;2022-12-07T00:06:58;12.27;;;9.00;;
5730;SDS011;2890;51.950;7.668;2022-12-07T00:09:25;12.60;;;9.37;;
5730;SDS011;2890;51.950;7.668;2022-12-07T00:11:52;10.73;;;8.93;;
5730;SDS011;2890;51.950;7.668;2022-12-07T00:14:19;12.43;;;9.40;;
5730;SDS011;2890;51.950;7.668;2022-12-07T00:16:48;12.47;;;8.50;;
5730;SDS011;2890;51.950;7.668;2022-12-07T00:19:16;11.83;;;8.83;;
5730;SDS011;2890;51.950;7.668;2022-12-07T00:21:44;15.17;;;8.83;;
5730;SDS011;2890;51.950;7.668;2022-12-07T00:24:11;12.93;;;9.50;;
5730;SDS011;2890;51.950;7.668;2022-12-07T00:26:39;12.33;;;8.73;;
5730;SDS011;2890;51.950;7.668;2022-12-07T00:29:06;9.70;;;8.50;;
5730;SDS011;2890;51.950;7.668;2022-12-07T00:31:34;10.90;;;8.70;;
5730;SDS011;2890;51.950;7.668;2022-12-07T00:34:03;10.90;;;8.20;;
5730;SDS011;2890;51.950;7.668;2022-12-07T00:36:32;11.40;;;9.07;;
5730;SDS011;2890;51.950;7.668;2022-12-07T00:38:59;10.70;;;8.07;;
5730;SDS011;2890;51.950;7.668;2022-12-07T00:41:27;14.27;;;8.47;;
5730;SDS011;2890;51.950;7.668;2022-12-07T00:43:54;13.70;;;8.23;;
5730;SDS011;2890;51.950;7.668;2022-12-07T00:46:22;9.60;;;7.60;;
5730;SDS011;2890;51.950;7.668;2022-12-07T00:48:50;13.07;;;7.70;;
5730;SDS011;2890;51.950;7.668;2022-12-07T00:51:18;11.40;;;7.73;;
5730;SDS011;2890;51.950;7.668;2022-12-07T00:53:47;9.67;;;7.57;;
5730;SDS011;2890;51.950;7.668;2022-12-07T00:56:15;12.50;;;8.13;;
5730;SDS011;2890;51.950;7.668;2022-12-07T00:58:42;9.57;;;7.53;;
5730;SDS011;2890;51.950;7.668;2022-12-07T01:01:10;10.30;;;7.53;;
5730;SDS011;2890;51.950;7.668;2022-12-07T01:03:37;9.47;;;7.53;;
5730;SDS011;2890;51.950;7.668;2022-12-07T01:06:05;9.93;;;7.17;;
5730;SDS011;2890;51.950;7.668;2022-12-07T01:08:32;12.43;;;8.27;;
5730;SDS011;2890;51.950;7.668;2022-12-07T01:11:02;10.13;;;7.57;;
5730;SDS011;2890;51.950;7.668;2022-12-07T01:13:30;10.67;;;7.87;;
5730;SDS011;2890;51.950;7.668;2022-12-07T01:15:58;13.10;;;7.37;;
5730;SDS011;2890;51.950;7.668;2022-12-07T01:18:26;10.23;;;7.90;;
5730;SDS011;2890;51.950;7.668;2022-12-07T01:20:57;10.83;;;8.33;;
5730;SDS011;2890;51.950;7.668;2022-12-07T01:23:24;11.43;;;8.10;;
5730;SDS011;2890;51.950;7.668;2022-12-07T01:25:53;10.37;;;7.93;;
5730;SDS011;2890;51.950;7.668;2022-12-07T01:28:22;10.47;;;7.40;;
5730;SDS011;2890;51.950;7.668;2022-12-07T01:30:56;12.30;;;7.53;;
5730;SDS011;2890;51.950;7.668;2022-12-07T01:33:23;13.03;;;8.00;;
5730;SDS011;2890;51.950;7.668;2022-12-07T01:35:50;9.27;;;7.53;;
5730;SDS011;2890;51.950;7.668;2022-12-07T01:38:17;10.27;;;7.60;;
5730;SDS011;2890;51.950;7.668;2022-12-07T01:40:44;10.77;;;7.30;;
5730;SDS011;2890;51.950;7.668;2022-12-07T01:43:14;13.33;;;7.97;;
5730;SDS011;2890;51.950;7.668;2022-12-07T01:45:45;10.27;;;8.03;;
5730;SDS011;2890;51.950;7.668;2022-12-07T01:48:12;11.63;;;7.67;;
5730;SDS011;2890;51.950;7.668;2022-12-07T01:50:41;11.13;;;7.93;;
5730;SDS011;2890;51.950;7.668;2022-12-07T01:53:09;12.20;;;8.30;;
5730;SDS011;2890;51.950;7.668;2022-12-07T01:55:37;12.57;;;8.80;;
5730;SDS011;2890;51.950;7.668;2022-12-07T01:58:05;11.40;;;8.13;;
5730;SDS011;2890;51.950;7.668;2022-12-07T02:00:32;10.27;;;7.90;;
5730;SDS011;2890;51.950;7.668;2022-12-07T02:03:03;11.93;;;8.17;;
5730;SDS011;2890;51.950;7.668;2022-12-07T02:05:32;10.90;;;7.60;;
5730;SDS011;2890;51.950;7.668;2022-12-07T02:07:59;13.27;;;7.87;;
5730;SDS011;2890;51.950;7.668;2022-12-07T02:10:28;11.60;;;7.50;;
5730;SDS011;2890;51.950;7.668;2022-12-07T02:12:55;9.90;;;7.53;;
5730;SDS011;2890;51.950;7.668;2022-12-07T02:15:25;13.73;;;8.00;;
5730;SDS011;2890;51.950;7.668;2022-12-07T02:20:59;13.40;;;9.17;;
5730;SDS011;2890;51.950;7.668;2022-12-07T02:23:39;14.47;;;7.90;;
5730;SDS011;2890;51.950;7.668;2022-12-07T02:26:21;15.27;;;8.07;;
5730;SDS011;2890;51.950;7.668;2022-12-07T02:28:56;11.00;;;8.07;;
5730;SDS011;2890;51.950;7.668;2022-12-07T02:31:27;15.40;;;8.63;;
5730;SDS011;2890;51.950;7.668;2022-12-07T02:33:57;13.53;;;8.27;;
5730;SDS011;2890;51.950;7.668;2022-12-07T02:36:27;11.87;;;8.23;;
5730;SDS011;2890;51.950;7.668;2022-12-07T02:38:58;12.60;;;9.07;;
5730;SDS011;2890;51.950;7.668;2022-12-07T02:41:27;14.40;;;8.63;;
5730;SDS011;2890;51.950;7.668;2022-12-07T02:43:55;10.80;;;7.77;;
5730;SDS011;2890;51.950;7.668;2022-12-07T02:46:25;11.30;;;8.13;;
5730;SDS011;2890;51.950;7.668;2022-12-07T02:48:53;11.53;;;8.50;;
5730;SDS011;2890;51.950;7.668;2022-12-07T02:51:21;15.63;;;8.03;;
5730;SDS011;2890;51.950;7.668;2022-12-07T02:53:48;12.83;;;7.87;;
5730;SDS011;2890;51.950;7.668;2022-12-07T02:56:18;11.90;;;8.37;;
5730;SDS011;2890;51.950;7.668;2022-12-07T02:58:50;12.93;;;8.77;;
5730;SDS011;2890;51.950;7.668;2022-12-07T03:01:24;12.93;;;8.43;;
5730;SDS011;2890;51.950;7.668;2022-12-07T03:04:04;14.43;;;8.23;;
5730;SDS011;2890;51.950;7.668;2022-12-07T03:06:34;16.83;;;9.50;;
5730;SDS011;2890;51.950;7.668;2022-12-07T03:09:06;12.50;;;7.70;;
5730;SDS011;2890;51.950;7.668;2022-12-07T03:11:40;9.50;;;7.97;;
5730;SDS011;2890;51.950;7.668;2022-12-07T03:14:09;16.57;;;8.43;;
5730;SDS011;2890;51.950;7.668;2022-12-07T03:16:40;18.47;;;8.60;;
5730;SDS011;2890;51.950;7.668;2022-12-07T03:19:10;12.20;;;7.83;;
5730;SDS011;2890;51.950;7.668;2022-12-07T03:21:38;13.10;;;8.07;;
5730;SDS011;2890;51.950;7.668;2022-12-07T03:24:08;16.27;;;8.43;;
5730;SDS011;2890;51.950;7.668;2022-12-07T03:26:38;15.00;;;9.30;;
5730;SDS011;2890;51.950;7.668;2022-12-07T03:29:07;13.27;;;8.37;;
5730;SDS011;2890;51.950;7.668;2022-12-07T03:31:36;14.20;;;8.97;;
5730;SDS011;2890;51.950;7.668;2022-12-07T03:34:06;15.10;;;8.83;;
5730;SDS011;2890;51.950;7.668;2022-12-07T03:36:37;12.67;;;7.73;;
5730;SDS011;2890;51.950;7.668;2022-12-07T03:39:08;12.90;;;7.57;;
5730;SDS011;2890;51.950;7.668;2022-12-07T03:41:39;13.73;;;8.37;;
5730;SDS011;2890;51.950;7.668;2022-12-07T03:44:06;18.27;;;8.37;;
5730;SDS011;2890;51.950;7.668;2022-12-07T03:46:35;19.60;;;9.30;;
5730;SDS011;2890;51.950;7.668;2022-12-07T03:49:05;14.27;;;8.83;;
5730;SDS011;2890;51.950;7.668;2022-12-07T03:51:35;14.93;;;8.93;;
5730;SDS011;2890;51.950;7.668;2022-12-07T03:54:07;12.30;;;8.27;;
5730;SDS011;2890;51.950;7.668;2022-12-07T03:56:35;13.10;;;9.07;;
5730;SDS011;2890;51.950;7.668;2022-12-07T03:59:03;12.40;;;7.83;;
5730;SDS011;2890;51.950;7.668;2022-12-07T04:01:31;15.90;;;9.10;;
5730;SDS011;2890;51.950;7.668;2022-12-07T04:03:58;13.77;;;8.63;;
5730;SDS011;2890;51.950;7.668;2022-12-07T04:06:25;13.63;;;9.23;;
5730;SDS011;2890;51.950;7.668;2022-12-07T04:08:53;19.27;;;9.30;;
5730;SDS011;2890;51.950;7.668;2022-12-07T04:11:22;18.33;;;9.23;;
5730;SDS011;2890;51.950;7.668;2022-12-07T04:13:49;13.03;;;9.27;;
5730;SDS011;2890;51.950;7.668;2022-12-07T04:16:34;15.53;;;9.47;;
5730;SDS011;2890;51.950;7.668;2022-12-07T04:19:01;12.63;;;8.67;;
5730;SDS011;2890;51.950;7.668;2022-12-07T04:21:28;21.50;;;8.60;;
5730;SDS011;2890;51.950;7.668;2022-12-07T04:23:55;15.50;;;8.93;;
5730;SDS011;2890;51.950;7.668;2022-12-07T04:26:23;16.97;;;8.97;;
5730;SDS011;2890;51.950;7.668;2022-12-07T04:28:51;15.70;;;9.43;;
5730;SDS011;2890;51.950;7.668;2022-12-07T04:31:18;19.90;;;8.67;;
5730;SDS011;2890;51.950;7.668;2022-12-07T04:33:45;14.87;;;9.27;;
5730;SDS011;2890;51.950;7.668;2022-12-07T04:36:12;11.77;;;8.27;;
5730;SDS011;2890;51.950;7.668;2022-12-07T04:38:39;12.50;;;7.73;;
5730;SDS011;2890;51.950;7.668;2022-12-07T04:41:06;14.20;;;7.43;;
5730;SDS011;2890;51.950;7.668;2022-12-07T04:43:35;14.13;;;7.77;;
5730;SDS011;2890;51.950;7.668;2022-12-07T04:46:02;12.30;;;7.17;;
5730;SDS011;2890;51.950;7.668;2022-12-07T04:48:29;12.30;;;6.50;;
5730;SDS011;2890;51.950;7.668;2022-12-07T04:50:57;13.40;;;6.73;;
5730;SDS011;2890;51.950;7.668;2022-12-07T04:53:24;10.07;;;6.93;;
5730;SDS011;2890;51.950;7.668;2022-12-07T04:55:51;17.10;;;6.70;;
5730;SDS011;2890;51.950;7.668;2022-12-07T04:58:18;11.93;;;7.33;;
5730;SDS011;2890;51.950;7.668;2022-12-07T05:00:46;11.43;;;6.07;;
5730;SDS011;2890;51.950;7.668;2022-12-07T05:03:14;14.50;;;6.70;;
5730;SDS011;2890;51.950;7.668;2022-12-07T05:05:41;12.90;;;7.10;;
5730;SDS011;2890;51.950;7.668;2022-12-07T05:08:08;16.37;;;6.73;;
5730;SDS011;2890;51.950;7.668;2022-12-07T05:10:35;12.73;;;7.30;;
5730;SDS011;2890;51.950;7.668;2022-12-07T05:13:02;13.40;;;6.90;;
5730;SDS011;2890;51.950;7.668;2022-12-07T05:15:29;15.80;;;5.90;;
5730;SDS011;2890;51.950;7.668;2022-12-07T05:17:58;11.67;;;6.57;;
5730;SDS011;2890;51.950;7.668;2022-12-07T05:20:25;9.37;;;5.90;;
5730;SDS011;2890;51.950;7.668;2022-12-07T05:22:52;10.13;;;5.60;;
5730;SDS011;2890;51.950;7.668;2022-12-07T05:25:19;12.60;;;6.07;;
5730;SDS011;2890;51.950;7.668;2022-12-07T05:27:46;8.20;;;5.43;;
5730;SDS011;2890;51.950;7.668;2022-12-07T05:30:13;8.37;;;5.17;;
5730;SDS011;2890;51.950;7.668;2022-12-07T05:32:40;9.43;;;5.30;;
5730;SDS011;2890;51.950;7.668;2022-12-07T05:35:09;10.60;;;4.93;;
5730;SDS011;2890;51.950;7.668;2022-12-07T05:37:36;10.97;;;4.70;;
5730;SDS011;2890;51.950;7.668;2022-12-07T05:40:04;6.50;;;4.27;;
5730;SDS011;2890;51.950;7.668;2022-12-07T05:42:31;7.57;;;4.57;;
5730;SDS011;2890;51.950;7.668;2022-12-07T05:44:58;10.07;;;5.27;;
5730;SDS011;2890;51.950;7.668;2022-12-07T05:47:25;10.90;;;4.70;;
5730;SDS011;2890;51.950;7.668;2022-12-07T05:49:52;6.83;;;4.53;;
5730;SDS011;2890;51.950;7.668;2022-12-07T05:52:21;11.90;;;4.90;;
5730;SDS011;2890;51.950;7.668;2022-12-07T05:54:48;15.33;;;5.23;;
5730;SDS011;2890;51.950;7.668;2022-12-07T05:57:15;9.37;;;4.13;;
5730;SDS011;2890;51.950;7.668;2022-12-07T05:59:42;10.60;;;4.00;;
5730;SDS011;2890;51.950;7.668;2022-12-07T06:02:09;6.80;;;4.30;;
5730;SDS011;2890;51.950;7.668;2022-12-07T06:04:37;8.37;;;4.30;;
5730;SDS011;2890;51.950;7.668;2022-12-07T06:07:04;6.57;;;4.03;;
5730;SDS011;2890;51.950;7.668;2022-12-07T06:09:33;8.63;;;4.60;;
5730;SDS011;2890;51.950;7.668;2022-12-07T06:12:01;7.47;;;4.03;;
5730;SDS011;2890;51.950;7.668;2022-12-07T06:14:46;7.33;;;3.97;;
5730;SDS011;2890;51.950;7.668;2022-12-07T06:17:14;9.23;;;3.87;;
5730;SDS011;2890;51.950;7.668;2022-12-07T06:19:41;8.03;;;3.77;;
5730;SDS011;2890;51.950;7.668;2022-12-07T06:22:09;5.90;;;3.57;;
5730;SDS011;2890;51.950;7.668;2022-12-07T06:24:38;10.10;;;3.80;;
5730;SDS011;2890;51.950;7.668;2022-12-07T06:27:05;6.63;;;2.80;;
5730;SDS011;2890;51.950;7.668;2022-12-07T06:29:32;8.37;;;3.63;;
5730;SDS011;2890;51.950;7.668;2022-12-07T06:31:59;10.53;;;3.13;;
5730;SDS011;2890;51.950;7.668;2022-12-07T06:34:27;5.37;;;2.87;;
5730;SDS011;2890;51.950;7.668;2022-12-07T06:36:54;6.07;;;3.67;;
5730;SDS011;2890;51.950;7.668;2022-12-07T06:39:22;7.10;;;3.70;;
5730;SDS011;2890;51.950;7.668;2022-12-07T06:41:50;8.00;;;3.80;;
5730;SDS011;2890;51.950;7.668;2022-12-07T06:44:19;9.33;;;3.60;;
5730;SDS011;2890;51.950;7.668;2022-12-07T06:46:46;11.47;;;3.67;;
5730;SDS011;2890;51.950;7.668;2022-12-07T06:49:14;7.40;;;3.97;;
5730;SDS011;2890;51.950;7.668;2022-12-07T06:51:41;12.03;;;3.73;;
5730;SDS011;2890;51.950;7.668;2022-12-07T06:54:09;8.50;;;3.50;;
5730;SDS011;2890;51.950;7.668;2022-12-07T06:56:36;12.10;;;3.63;;
5730;SDS011;2890;51.950;7.668;2022-12-07T06:59:05;5.90;;;3.23;;
5730;SDS011;2890;51.950;7.668;2022-12-07T07:01:33;9.10;;;3.50;;
5730;SDS011;2890;51.950;7.668;2022-12-07T07:04:02;11.43;;;3.67;;
5730;SDS011;2890;51.950;7.668;2022-12-07T07:06:30;7.27;;;3.60;;
5730;SDS011;2890;51.950;7.668;2022-12-07T07:08:58;9.00;;;3.53;;
5730;SDS011;2890;51.950;7.668;2022-12-07T07:11:28;9.37;;;4.07;;
5730;SDS011;2890;51.950;7.668;2022-12-07T07:13:55;5.40;;;3.60;;
5730;SDS011;2890;51.950;7.668;2022-12-07T07:16:28;8.53;;;5.00;;
5730;SDS011;2890;51.950;7.668;2022-12-07T07:18:58;9.37;;;4.73;;
5730;SDS011;2890;51.950;7.668;2022-12-07T07:21:28;9.77;;;4.23;;
5730;SDS011;2890;51.950;7.668;2022-12-07T07:23:56;9.53;;;4.80;;
5730;SDS011;2890;51.950;7.668;2022-12-07T07:26:26;18.53;;;6.27;;
5730;SDS011;2890;51.950;7.668;2022-12-07T07:28:58;7.00;;;4.73;;
5730;SDS011;2890;51.950;7.668;2022-12-07T07:31:25;9.63;;;4.60;;
5730;SDS011;2890;51.950;7.668;2022-12-07T07:33:54;8.43;;;5.20;;
5730;SDS011;2890;51.950;7.668;2022-12-07T07:36:21;9.67;;;4.83;;
5730;SDS011;2890;51.950;7.668;2022-12-07T07:38:48;11.80;;;5.23;;
5730;SDS011;2890;51.950;7.668;2022-12-07T07:41:18;9.23;;;4.77;;
5730;SDS011;2890;51.950;7.668;2022-12-07T07:43:48;11.53;;;5.53;;
5730;SDS011;2890;51.950;7.668;2022-12-07T07:46:15;9.57;;;4.90;;
5730;SDS011;2890;51.950;7.668;2022-12-07T07:48:45;10.03;;;5.03;;
5730;SDS011;2890;51.950;7.668;2022-12-07T07:51:14;10.30;;;4.63;;
5730;SDS011;2890;51.950;7.668;2022-12-07T07:53:41;8.87;;;4.43;;
5730;SDS011;2890;51.950;7.668;2022-12-07T07:56:08;7.33;;;3.70;;
5730;SDS011;2890;51.950;7.668;2022-12-07T07:58:35;11.13;;;4.77;;
5730;SDS011;2890;51.950;7.668;2022-12-07T08:01:04;10.50;;;4.53;;
5730;SDS011;2890;51.950;7.668;2022-12-07T08:03:31;6.43;;;4.10;;
5730;SDS011;2890;51.950;7.668;2022-12-07T08:05:58;11.33;;;3.90;;
5730;SDS011;2890;51.950;7.668;2022-12-07T08:08:27;5.80;;;4.53;;
5730;SDS011;2890;51.950;7.668;2022-12-07T08:10:56;13.73;;;5.17;;
5730;SDS011;2890;51.950;7.668;2022-12-07T08:13:25;7.50;;;4.20;;
5730;SDS011;2890;51.950;7.668;2022-12-07T08:15:53;9.73;;;5.77;;
5730;SDS011;2890;51.950;7.668;2022-12-07T08:18:20;8.63;;;4.93;;
5730;SDS011;2890;51.950;7.668;2022-12-07T08:20:47;9.13;;;4.60;;
5730;SDS011;2890;51.950;7.668;2022-12-07T08:23:17;10.90;;;5.70;;
5730;SDS011;2890;51.950;7.668;2022-12-07T08:25:49;9.60;;;4.87;;
5730;SDS011;2890;51.950;7.668;2022-12-07T08:28:16;10.17;;;6.13;;
5730;SDS011;2890;51.950;7.668;2022-12-07T08:30:52;13.10;;;5.70;;
5730;SDS011;2890;51.950;7.668;2022-12-07T08:33:19;16.27;;;5.77;;
5730;SDS011;2890;51.950;7.668;2022-12-07T08:35:48;11.63;;;5.63;;
5730;SDS011;2890;51.950;7.668;2022-12-07T08:38:15;10.60;;;5.37;;
5730;SDS011;2890;51.950;7.668;2022-12-07T08:40:42;8.33;;;5.23;;
5730;SDS011;2890;51.950;7.668;2022-12-07T08:43:10;11.13;;;5.50;;
5730;SDS011;2890;51.950;7.668;2022-12-07T08:45:46;8.53;;;5.80;;
5730;SDS011;2890;51.950;7.668;2022-12-07T08:48:14;10.60;;;5.07;;
5730;SDS011;2890;51.950;7.668;2022-12-07T08:50:47;19.10;;;5.63;;
5730;SDS011;2890;51.950;7.668;2022-12-07T08:53:18;9.10;;;5.13;;
5730;SDS011;2890;51.950;7.668;2022-12-07T08:55:45;7.70;;;4.07;;
5730;SDS011;2890;51.950;7.668;2022-12-07T08:58:15;7.93;;;4.43;;
5730;SDS011;2890;51.950;7.668;2022-12-07T09:00:42;8.73;;;4.50;;
5730;SDS011;2890;51.950;7.668;2022-12-07T09:03:09;5.97;;;4.00;;
5730;SDS011;2890;51.950;7.668;2022-12-07T09:05:36;6.77;;;3.43;;
5730;SDS011;2890;51.950;7.668;2022-12-07T09:08:04;7.20;;;3.27;;
5730;SDS011;2890;51.950;7.668;2022-12-07T09:10:31;8.60;;;3.17;;
5730;SDS011;2890;51.950;7.668;2022-12-07T09:12:58;5.93;;;4.00;;
5730;SDS011;2890;51.950;7.668;2022-12-07T09:15:27;5.97;;;3.27;;
5730;SDS011;2890;51.950;7.668;2022-12-07T09:18:00;6.23;;;3.43;;
5730;SDS011;2890;51.950;7.668;2022-12-07T09:20:27;7.17;;;3.80;;
5730;SDS011;2890;51.950;7.668;2022-12-07T09:22:57;8.60;;;3.20;;
5730;SDS011;2890;51.950;7.668;2022-12-07T09:25:27;4.47;;;2.93;;
5730;SDS011;2890;51.950;7.668;2022-12-07T09:27:58;7.73;;;3.50;;
5730;SDS011;2890;51.950;7.668;2022-12-07T09:30:26;9.20;;;3.87;;
5730;SDS011;2890;51.950;7.668;2022-12-07T09:32:54;7.43;;;3.70;;
5730;SDS011;2890;51.950;7.668;2022-12-07T09:35:27;7.70;;;3.63;;
5730;SDS011;2890;51.950;7.668;2022-12-07T09:37:54;8.03;;;3.77;;
5730;SDS011;2890;51.950;7.668;2022-12-07T09:40:22;8.60;;;3.67;;
5730;SDS011;2890;51.950;7.668;2022-12-07T09:42:55;6.20;;;3.60;;
5730;SDS011;2890;51.950;7.668;2022-12-07T09:45:23;7.80;;;3.53;;
5730;SDS011;2890;51.950;7.668;2022-12-07T09:47:52;8.80;;;4.47;;
5730;SDS011;2890;51.950;7.668;2022-12-07T09:50:20;8.33;;;4.07;;
5730;SDS011;2890;51.950;7.668;2022-12-07T09:52:48;10.43;;;4.73;;
5730;SDS011;2890;51.950;7.668;2022-12-07T09:55:16;12.57;;;4.67;;
5730;SDS011;2890;51.950;7.668;2022-12-07T09:57:47;13.70;;;4.13;;
5730;SDS011;2890;51.950;7.668;2022-12-07T10:00:17;7.60;;;4.17;;
5730;SDS011;2890;51.950;7.668;2022-12-07T10:02:47;9.73;;;4.17;;
5730;SDS011;2890;51.950;7.668;2022-12-07T10:05:16;8.63;;;4.03;;
5730;SDS011;2890;51.950;7.668;2022-12-07T10:07:45;10.10;;;4.03;;
5730;SDS011;2890;51.950;7.668;2022-12-07T10:10:13;6.23;;;3.77;;
5730;SDS011;2890;51.950;7.668;2022-12-07T10:12:56;8.27;;;3.60;;
5730;SDS011;2890;51.950;7.668;2022-12-07T10:18:28;10.10;;;4.67;;
5730;SDS011;2890;51.950;7.668;2022-12-07T10:21:02;5.80;;;3.33;;
5730;SDS011;2890;51.950;7.668;2022-12-07T10:23:32;9.73;;;3.77;;
5730;SDS011;2890;51.950;7.668;2022-12-07T10:26:00;6.80;;;3.57;;
5730;SDS011;2890;51.950;7.668;2022-12-07T10:28:42;9.20;;;4.03;;
5730;SDS011;2890;51.950;7.668;2022-12-07T10:31:15;9.73;;;3.63;;
5730;SDS011;2890;51.950;7.668;2022-12-07T10:33:48;7.03;;;3.20;;
5730;SDS011;2890;51.950;7.668;2022-12-07T10:36:18;7.07;;;3.90;;
5730;SDS011;2890;51.950;7.668;2022-12-07T10:38:51;9.20;;;3.37;;
5730;SDS011;2890;51.950;7.668;2022-12-07T10:41:27;8.10;;;3.60;;
5730;SDS011;2890;51.950;7.668;2022-12-07T10:43:55;5.33;;;3.40;;
5730;SDS011;2890;51.950;7.668;2022-12-07T10:52:11;7.33;;;3.27;;
5730;SDS011;2890;51.950;7.668;2022-12-07T10:54:43;4.47;;;2.97;;
5730;SDS011;2890;51.950;7.668;2022-12-07T10:57:24;6.33;;;3.27;;
5730;SDS011;2890;51.950;7.668;2022-12-07T10:59:57;7.30;;;2.93;;
5730;SDS011;2890;51.950;7.668;2022-12-07T11:02:32;7.83;;;2.87;;
5730;SDS011;2890;51.950;7.668;2022-12-07T11:05:06;5.97;;;2.83;;
5730;SDS011;2890;51.950;7.668;2022-12-07T11:07:41;6.77;;;3.03;;
5730;SDS011;2890;51.950;7.668;2022-12-07T11:10:12;9.87;;;3.23;;
5730;SDS011;2890;51.950;7.668;2022-12-07T11:12:47;8.23;;;3.00;;
5730;SDS011;2890;51.950;7.668;2022-12-07T11:15:21;6.47;;;2.73;;
5730;SDS011;2890;51.950;7.668;2022-12-07T11:17:52;7.23;;;2.90;;
5730;SDS011;2890;51.950;7.668;2022-12-07T11:20:26;7.20;;;2.90;;
5730;SDS011;2890;51.950;7.668;2022-12-07T11:22:58;3.80;;;2.77;;
5730;SDS011;2890;51.950;7.668;2022-12-07T11:25:31;4.80;;;3.30;;
5730;SDS011;2890;51.950;7.668;2022-12-07T11:28:03;10.60;;;2.73;;
5730;SDS011;2890;51.950;7.668;2022-12-07T11:30:34;8.90;;;3.13;;
5730;SDS011;2890;51.950;7.668;2022-12-07T11:33:06;5.30;;;2.50;;
5730;SDS011;2890;51.950;7.668;2022-12-07T11:35:45;5.03;;;2.40;;
5730;SDS011;2890;51.950;7.668;2022-12-07T11:38:18;4.07;;;1.97;;
5730;SDS011;2890;51.950;7.668;2022-12-07T11:40:48;4.97;;;2.03;;
5730;SDS011;2890;51.950;7.668;2022-12-07T11:43:18;4.10;;;2.63;;
5730;SDS011;2890;51.950;7.668;2022-12-07T11:45:47;5.13;;;2.00;;
5730;SDS011;2890;51.950;7.668;2022-12-07T11:48:19;5.30;;;2.23;;
5730;SDS011;2890;51.950;7.668;2022-12-07T11:50:47;5.27;;;1.73;;
5730;SDS011;2890;51.950;7.668;2022-12-07T11:53:17;7.70;;;2.30;;
5730;SDS011;2890;51.950;7.668;2022-12-07T11:55:47;5.17;;;1.93;;
5730;SDS011;2890;51.950;7.668;2022-12-07T11:58:29;7.07;;;2.07;;
5730;SDS011;2890;51.950;7.668;2022-12-07T12:01:06;4.73;;;2.53;;
5730;SDS011;2890;51.950;7.668;2022-12-07T12:03:36;5.50;;;2.03;;
5730;SDS011;2890;51.950;7.668;2022-12-07T12:06:05;7.30;;;2.83;;
5730;SDS011;2890;51.950;7.668;2022-12-07T12:08:33;6.90;;;4.10;;
5730;SDS011;2890;51.950;7.668;2022-12-07T12:11:05;2.83;;;2.20;;
5730;SDS011;2890;51.950;7.668;2022-12-07T12:13:44;3.03;;;1.80;;
5730;SDS011;2890;51.950;7.668;2022-12-07T12:16:28;6.67;;;2.00;;
5730;SDS011;2890;51.950;7.668;2022-12-07T12:19:00;7.20;;;2.40;;
5730;SDS011;2890;51.950;7.668;2022-12-07T12:21:31;6.80;;;2.43;;
5730;SDS011;2890;51.950;7.668;2022-12-07T12:23:59;3.60;;;2.07;;
5730;SDS011;2890;51.950;7.668;2022-12-07T12:26:29;4.07;;;1.80;;
5730;SDS011;2890;51.950;7.668;2022-12-07T12:28:58;4.50;;;2.07;;
5730;SDS011;2890;51.950;7.668;2022-12-07T12:31:32;3.63;;;2.30;;
5730;SDS011;2890;51.950;7.668;2022-12-07T12:34:02;8.83;;;2.13;;
5730;SDS011;2890;51.950;7.668;2022-12-07T12:36:42;3.13;;;2.07;;
5730;SDS011;2890;51.950;7.668;2022-12-07T12:39:11;5.57;;;2.40;;
5730;SDS011;2890;51.950;7.668;2022-12-07T12:41:59;6.33;;;2.23;;
5730;SDS011;2890;51.950;7.668;2022-12-07T12:44:39;4.20;;;1.90;;
5730;SDS011;2890;51.950;7.668;2022-12-07T12:47:38;4.07;;;1.73;;
5730;SDS011;2890;51.950;7.668;2022-12-07T12:52:53;7.03;;;2.13;;
5730;SDS011;2890;51.950;7.668;2022-12-07T12:55:45;6.80;;;2.23;;
5730;SDS011;2890;51.950;7.668;2022-12-07T12:58:33;3.37;;;2.30;;
5730;SDS011;2890;51.950;7.668;2022-12-07T13:03:51;3.47;;;1.97;;
5730;SDS011;2890;51.950;7.668;2022-12-07T13:06:20;4.63;;;2.67;;
5730;SDS011;2890;51.950;7.668;2022-12-07T13:08:47;2.77;;;2.17;;
5730;SDS011;2890;51.950;7.668;2022-12-07T13:11:17;4.90;;;2.57;;
5730;SDS011;2890;51.950;7.668;2022-12-07T13:13:46;6.77;;;2.37;;
5730;SDS011;2890;51.950;7.668;2022-12-07T13:18:55;3.27;;;2.30;;
5730;SDS011;2890;51.950;7.668;2022-12-07T13:21:41;3.80;;;2.10;;
5730;SDS011;2890;51.950;7.668;2022-12-07T13:24:09;5.87;;;2.47;;
5730;SDS011;2890;51.950;7.668;2022-12-07T13:26:37;5.03;;;2.67;;
5730;SDS011;2890;51.950;7.668;2022-12-07T13:29:09;4.20;;;2.73;;
5730;SDS011;2890;51.950;7.668;2022-12-07T13:31:38;4.20;;;2.37;;
5730;SDS011;2890;51.950;7.668;2022-12-07T13:36:48;3.10;;;1.93;;
5730;SDS011;2890;51.950;7.668;2022-12-07T13:39:18;5.00;;;2.20;;
5730;SDS011;2890;51.950;7.668;2022-12-07T13:41:49;4.60;;;2.20;;
5730;SDS011;2890;51.950;7.668;2022-12-07T13:44:18;4.10;;;2.80;;
5730;SDS011;2890;51.950;7.668;2022-12-07T13:46:48;2.83;;;1.60;;
5730;SDS011;2890;51.950;7.668;2022-12-07T13:49:17;6.27;;;2.33;;
5730;SDS011;2890;51.950;7.668;2022-12-07T13:51:44;3.90;;;1.90;;
5730;SDS011;2890;51.950;7.668;2022-12-07T13:54:12;3.40;;;1.90;;
5730;SDS011;2890;51.950;7.668;2022-12-07T13:56:39;4.40;;;2.40;;
5730;SDS011;2890;51.950;7.668;2022-12-07T13:59:10;5.00;;;2.40;;
5730;SDS011;2890;51.950;7.668;2022-12-07T14:01:40;5.17;;;2.43;;
5730;SDS011;2890;51.950;7.668;2022-12-07T14:04:18;3.40;;;1.83;;
5730;SDS011;2890;51.950;7.668;2022-12-07T14:06:48;6.40;;;1.87;;
5730;SDS011;2890;51.950;7.668;2022-12-07T14:09:17;6.50;;;2.27;;
5730;SDS011;2890;51.950;7.668;2022-12-07T14:11:45;5.53;;;1.77;;
5730;SDS011;2890;51.950;7.668;2022-12-07T14:14:13;4.87;;;2.30;;
5730;SDS011;2890;51.950;7.668;2022-12-07T14:16:54;3.67;;;1.90;;
5730;SDS011;2890;51.950;7.668;2022-12-07T14:22:07;5.83;;;2.20;;
5730;SDS011;2890;51.950;7.668;2022-12-07T14:24:41;5.03;;;2.63;;
5730;SDS011;2890;51.950;7.668;2022-12-07T14:27:15;2.60;;;2.17;;
5730;SDS011;2890;51.950;7.668;2022-12-07T14:29:43;5.23;;;2.20;;
5730;SDS011;2890;51.950;7.668;2022-12-07T14:32:19;5.93;;;2.10;;
5730;SDS011;2890;51.950;7.668;2022-12-07T14:34:54;6.93;;;2.33;;
5730;SDS011;2890;51.950;7.668;2022-12-07T14:37:22;3.63;;;2.17;;
5730;SDS011;2890;51.950;7.668;2022-12-07T14:39:49;6.63;;;2.43;;
5730;SDS011;2890;51.950;7.668;2022-12-07T14:42:18;5.20;;;1.90;;
5730;SDS011;2890;51.950;7.668;2022-12-07T14:44:46;5.73;;;2.00;;
5730;SDS011;2890;51.950;7.668;2022-12-07T14:47:13;4.67;;;2.00;;
5730;SDS011;2890;51.950;7.668;2022-12-07T14:49:42;4.97;;;2.50;;
5730;SDS011;2890;51.950;7.668;2022-12-07T14:52:11;3.70;;;1.77;;
5730;SDS011;2890;51.950;7.668;2022-12-07T14:54:40;3.13;;;1.60;;
5730;SDS011;2890;51.950;7.668;2022-12-07T14:57:08;2.60;;;1.80;;
5730;SDS011;2890;51.950;7.668;2022-12-07T14:59:36;2.57;;;1.77;;
5730;SDS011;2890;51.950;7.668;2022-12-07T15:02:03;2.03;;;1.57;;
5730;SDS011;2890;51.950;7.668;2022-12-07T15:04:32;2.43;;;1.90;;
5730;SDS011;2890;51.950;7.668;2022-12-07T15:07:02;4.63;;;2.43;;
5730;SDS011;2890;51.950;7.668;2022-12-07T15:09:29;5.53;;;2.03;;
5730;SDS011;2890;51.950;7.668;2022-12-07T15:11:56;7.03;;;2.13;;
5730;SDS011;2890;51.950;7.668;2022-12-07T15:14:24;4.90;;;1.70;;
5730;SDS011;2890;51.950;7.668;2022-12-07T15:16:51;3.43;;;1.60;;
5730;SDS011;2890;51.950;7.668;2022-12-07T15:19:19;5.47;;;1.80;;
5730;SDS011;2890;51.950;7.668;2022-12-07T15:21:47;4.00;;;2.00;;
5730;SDS011;2890;51.950;7.668;2022-12-07T15:24:16;4.33;;;2.00;;
5730;SDS011;2890;51.950;7.668;2022-12-07T15:26:45;5.33;;;1.90;;
5730;SDS011;2890;51.950;7.668;2022-12-07T15:29:13;3.97;;;2.00;;
5730;SDS011;2890;51.950;7.668;2022-12-07T15:31:41;3.23;;;1.80;;
5730;SDS011;2890;51.950;7.668;2022-12-07T15:34:09;9.07;;;2.10;;
5730;SDS011;2890;51.950;7.668;2022-12-07T15:36:37;3.33;;;1.97;;
5730;SDS011;2890;51.950;7.668;2022-12-07T15:39:04;7.87;;;2.60;;
5730;SDS011;2890;51.950;7.668;2022-12-07T15:41:33;5.07;;;2.17;;
5730;SDS011;2890;51.950;7.668;2022-12-07T15:44:00;3.47;;;1.97;;
5730;SDS011;2890;51.950;7.668;2022-12-07T15:46:44;5.53;;;2.00;;
5730;SDS011;2890;51.950;7.668;2022-12-07T15:49:12;5.80;;;2.60;;
5730;SDS011;2890;51.950;7.668;2022-12-07T15:51:40;4.60;;;2.40;;